createdAt,value
2019-05-22T00:00:36.313Z,99.90
2019-05-22T00:03:15.876Z,99.90
2019-05-22T00:05:49.072Z,99.90
2019-05-22T00:08:23.561Z,99.90
2019-05-22T00:11:03.578Z,99.90
2019-05-22T00:13:37.900Z,99.90
2019-05-22T00:16:16.357Z,99.90
2019-05-22T00:18:58.560Z,99.90
2019-05-22T00:21:32.316Z,99.90
2019-05-22T00:24:04.923Z,98.80
2019-05-22T00:26:38.497Z,99.90
2019-05-22T00:29:11.456Z,99.90
2019-05-22T00:31:46.743Z,99.90
2019-05-22T00:34:17.472Z,99.90
2019-05-22T00:36:53.430Z,99.90
2019-05-22T00:39:39.760Z,99.90
2019-05-22T00:42:13.789Z,99.90
2019-05-22T00:44:46.363Z,99.90
2019-05-22T00:47:18.031Z,98.90
2019-05-22T00:49:55.742Z,98.90
2019-05-22T00:52:32.562Z,98.10
2019-05-22T00:55:14.780Z,98.70
2019-05-22T00:57:51.686Z,98.40
2019-05-22T01:00:36.278Z,97.60
2019-05-22T01:03:08.270Z,98.10
2019-05-22T01:05:43.310Z,99.90
2019-05-22T01:08:16.828Z,99.10
2019-05-22T01:10:51.766Z,98.20
2019-05-22T01:13:23.854Z,99.90
2019-05-22T01:15:57.018Z,99.90
2019-05-22T01:18:39.825Z,99.90
2019-05-22T01:21:15.594Z,99.50
2019-05-22T01:23:52.470Z,98.00
2019-05-22T01:26:29.974Z,98.40
2019-05-22T01:29:04.205Z,97.00
2019-05-22T01:31:36.140Z,97.20
2019-05-22T01:34:17.484Z,97.30
2019-05-22T01:36:57.672Z,96.60
2019-05-22T01:39:33.651Z,96.90
2019-05-22T01:42:09.066Z,95.80
2019-05-22T01:44:41.952Z,96.60
2019-05-22T01:47:17.183Z,98.50
2019-05-22T01:49:55.372Z,99.90
2019-05-22T01:52:31.414Z,99.90
2019-05-22T01:55:03.417Z,99.70
2019-05-22T01:57:36.845Z,98.10
2019-05-22T02:00:13.238Z,98.80
2019-05-22T02:02:54.244Z,98.40
2019-05-22T02:05:32.694Z,98.10
2019-05-22T02:08:09.374Z,97.10
2019-05-22T02:10:48.364Z,97.80
2019-05-22T02:13:25.236Z,98.50
2019-05-22T02:16:02.265Z,98.10
2019-05-22T02:18:36.785Z,99.20
2019-05-22T02:21:12.356Z,98.50
2019-05-22T02:23:47.739Z,99.90
2019-05-22T02:26:21.852Z,99.90
2019-05-22T02:28:56.867Z,99.90
2019-05-22T02:31:31.675Z,99.90
2019-05-22T02:34:17.086Z,99.90
2019-05-22T02:36:52.228Z,99.20
2019-05-22T02:39:28.410Z,98.30
2019-05-22T02:42:04.495Z,97.50
2019-05-22T02:44:39.859Z,97.90
2019-05-22T02:47:20.615Z,97.90
2019-05-22T02:49:56.477Z,97.60
2019-05-22T02:52:31.628Z,98.20
2019-05-22T02:55:02.634Z,98.20
2019-05-22T02:57:38.322Z,99.90
2019-05-22T03:00:17.031Z,99.90
2019-05-22T03:03:07.689Z,99.20
2019-05-22T03:05:45.107Z,97.80
2019-05-22T03:08:18.258Z,96.60
2019-05-22T03:10:53.004Z,96.90
2019-05-22T03:13:27.743Z,96.50
2019-05-22T03:16:02.354Z,96.40
2019-05-22T03:18:35.143Z,96.50
2019-05-22T03:21:06.864Z,96.00
2019-05-22T03:23:46.728Z,95.00
2019-05-22T03:26:20.409Z,94.50
2019-05-22T03:28:55.110Z,93.30
2019-05-22T03:31:26.548Z,94.10
2019-05-22T03:34:02.002Z,93.90
2019-05-22T03:36:32.822Z,94.10
2019-05-22T03:39:05.954Z,94.60
2019-05-22T03:41:37.277Z,96.10
2019-05-22T03:44:10.886Z,95.50
2019-05-22T03:46:46.476Z,98.10
2019-05-22T03:49:31.023Z,97.40
2019-05-22T03:51:57.674Z,98.10
2019-05-22T03:54:32.849Z,97.70
2019-05-22T03:57:03.268Z,97.30
2019-05-22T03:59:36.859Z,95.90
2019-05-22T04:02:13.900Z,96.50
2019-05-22T04:04:54.062Z,98.70
2019-05-22T04:07:33.025Z,97.50
2019-05-22T04:10:04.785Z,98.70
2019-05-22T04:12:38.408Z,97.30
2019-05-22T04:15:16.922Z,98.70
2019-05-22T04:18:00.961Z,99.90
2019-05-22T04:20:31.333Z,98.10
2019-05-22T04:23:06.926Z,99.40
2019-05-22T04:25:42.599Z,98.10
2019-05-22T04:28:14.882Z,98.50
2019-05-22T04:30:48.416Z,97.50
2019-05-22T04:33:29.213Z,96.30
2019-05-22T04:36:01.670Z,95.20
2019-05-22T04:38:36.535Z,95.00
2019-05-22T04:41:07.147Z,92.40
2019-05-22T04:43:39.526Z,94.50
2019-05-22T04:46:12.855Z,93.90
2019-05-22T04:48:46.693Z,91.30
2019-05-22T04:51:25.134Z,92.20
2019-05-22T04:54:02.822Z,92.10
2019-05-22T04:56:34.865Z,91.40
2019-05-22T04:59:07.997Z,91.00
2019-05-22T05:01:48.394Z,90.50
2019-05-22T05:04:29.573Z,91.30
2019-05-22T05:07:03.035Z,94.00
2019-05-22T05:09:42.362Z,95.20
2019-05-22T05:12:15.129Z,93.30
2019-05-22T05:14:48.658Z,93.10
2019-05-22T05:17:18.681Z,93.10
2019-05-22T05:19:49.731Z,92.40
2019-05-22T05:22:22.713Z,92.90
2019-05-22T05:24:55.184Z,92.80
2019-05-22T05:27:22.562Z,90.20
2019-05-22T05:29:56.146Z,88.30
2019-05-22T05:32:33.169Z,89.70
2019-05-22T05:35:06.480Z,88.70
2019-05-22T05:37:41.027Z,89.60
2019-05-22T05:40:14.430Z,85.50
2019-05-22T05:42:47.791Z,85.00
2019-05-22T05:45:19.077Z,81.90
2019-05-22T05:47:48.432Z,81.60
2019-05-22T05:50:37.853Z,84.10
2019-05-22T05:52:55.950Z,83.70
2019-05-22T05:55:30.277Z,85.10
2019-05-22T05:58:16.409Z,84.60
2019-05-22T06:00:57.061Z,80.60
2019-05-22T06:03:41.009Z,80.40
2019-05-22T06:06:23.476Z,86.90
2019-05-22T06:08:54.350Z,86.90
2019-05-22T06:11:41.215Z,76.60
2019-05-22T06:14:22.887Z,79.70
2019-05-22T06:16:59.793Z,79.30
2019-05-22T06:19:34.701Z,80.90
2019-05-22T06:22:10.491Z,77.20
2019-05-22T06:24:55.207Z,79.10
2019-05-22T06:27:27.510Z,81.20
2019-05-22T06:30:10.643Z,80.20
2019-05-22T06:33:16.279Z,82.10
2019-05-22T06:35:47.302Z,81.60
2019-05-22T06:38:28.485Z,81.00
2019-05-22T06:41:01.876Z,80.20
2019-05-22T06:43:34.002Z,81.70
2019-05-22T06:46:08.237Z,82.40
2019-05-22T06:48:42.665Z,82.40
2019-05-22T06:51:19.449Z,80.30
2019-05-22T06:53:48.891Z,81.50
2019-05-22T06:56:18.993Z,79.90
2019-05-22T06:58:58.159Z,80.10
2019-05-22T07:01:32.070Z,80.10
2019-05-22T07:04:07.484Z,80.30
2019-05-22T07:06:44.861Z,80.50
2019-05-22T07:09:18.746Z,83.90
2019-05-22T07:11:55.594Z,81.10
2019-05-22T07:14:37.859Z,79.00
2019-05-22T07:17:12.107Z,80.30
2019-05-22T07:19:48.027Z,79.00
2019-05-22T07:22:18.730Z,77.80
2019-05-22T07:24:51.366Z,77.20
2019-05-22T07:27:26.437Z,74.90
2019-05-22T07:30:00.284Z,75.50
2019-05-22T07:32:31.197Z,77.80
2019-05-22T07:35:02.548Z,77.00
2019-05-22T07:37:35.387Z,77.60
2019-05-22T07:40:07.418Z,78.00
2019-05-22T07:42:40.205Z,75.80
2019-05-22T07:45:13.312Z,73.90
2019-05-22T07:47:55.327Z,70.10
2019-05-22T07:50:28.099Z,70.80
2019-05-22T07:53:01.938Z,69.60
2019-05-22T07:55:36.717Z,70.30
2019-05-22T07:58:19.692Z,70.00
2019-05-22T08:00:59.939Z,69.10
2019-05-22T08:03:33.645Z,68.60
2019-05-22T08:06:06.439Z,67.30
2019-05-22T08:08:37.222Z,68.00
2019-05-22T08:11:11.051Z,68.00
2019-05-22T08:13:41.916Z,66.00
2019-05-22T08:16:17.168Z,68.20
2019-05-22T08:18:55.312Z,67.80
2019-05-22T08:21:37.286Z,67.20
2019-05-22T08:24:19.742Z,66.50
2019-05-22T08:27:06.718Z,66.50
2019-05-22T08:29:38.670Z,65.10
2019-05-22T08:32:14.779Z,64.40
2019-05-22T08:34:49.391Z,63.90
2019-05-22T08:37:24.249Z,64.70
2019-05-22T08:39:58.440Z,67.70
2019-05-22T08:42:39.371Z,65.70
2019-05-22T08:45:09.946Z,65.90
2019-05-22T08:47:42.167Z,68.80
2019-05-22T08:50:17.273Z,69.50
2019-05-22T08:52:52.965Z,70.30
2019-05-22T08:55:24.096Z,69.30
2019-05-22T08:57:55.620Z,67.40
2019-05-22T09:00:37.095Z,68.60
2019-05-22T09:03:02.531Z,72.80
2019-05-22T09:05:34.263Z,72.50
2019-05-22T09:08:03.586Z,75.50
2019-05-22T09:10:34.958Z,74.60
2019-05-22T09:13:14.570Z,69.40
2019-05-22T09:15:54.652Z,67.30
2019-05-22T09:18:25.996Z,63.90
2019-05-22T09:20:57.390Z,63.00
2019-05-22T09:23:30.455Z,61.00
2019-05-22T09:26:01.691Z,59.90
2019-05-22T09:28:32.293Z,59.50
2019-05-22T09:31:04.209Z,60.50
2019-05-22T09:33:37.497Z,59.60
2019-05-22T09:36:12.145Z,62.70
2019-05-22T09:38:41.670Z,61.70
2019-05-22T09:41:12.008Z,62.10
2019-05-22T09:43:45.069Z,61.50
2019-05-22T09:46:17.684Z,63.60
2019-05-22T09:48:49.196Z,64.60
2019-05-22T09:51:22.856Z,64.10
2019-05-22T09:53:55.151Z,67.20
2019-05-22T09:56:24.552Z,68.10
2019-05-22T09:58:59.543Z,66.00
2019-05-22T10:01:39.895Z,70.60
2019-05-22T10:04:15.141Z,67.50
2019-05-22T10:06:44.865Z,62.20
2019-05-22T10:09:30.586Z,65.90
2019-05-22T10:12:01.077Z,66.10
2019-05-22T10:14:39.612Z,64.10
2019-05-22T10:17:10.927Z,61.30
2019-05-22T10:19:40.690Z,61.20
2019-05-22T10:22:12.417Z,60.50
2019-05-22T10:24:41.808Z,58.50
2019-05-22T10:27:17.330Z,57.50
2019-05-22T10:29:48.284Z,58.80
2019-05-22T10:32:23.450Z,60.80
2019-05-22T10:34:57.197Z,63.10
2019-05-22T10:37:31.457Z,64.60
2019-05-22T10:40:13.051Z,62.60
2019-05-22T10:42:45.151Z,63.10
2019-05-22T10:45:22.294Z,63.00
2019-05-22T10:50:44.012Z,61.60
2019-05-22T10:53:32.194Z,62.40
2019-05-22T10:55:50.466Z,62.70
2019-05-22T10:58:23.295Z,63.00
2019-05-22T11:00:56.386Z,63.30
2019-05-22T11:03:27.508Z,65.00
2019-05-22T11:06:07.607Z,67.10
2019-05-22T11:08:37.949Z,65.30
2019-05-22T11:11:08.595Z,62.50
2019-05-22T11:14:00.732Z,62.30
2019-05-22T11:16:17.457Z,64.40
2019-05-22T11:18:48.227Z,64.40
2019-05-22T11:21:21.589Z,62.80
2019-05-22T11:23:53.547Z,62.90
2019-05-22T11:26:26.676Z,63.50
2019-05-22T11:29:04.656Z,65.50
2019-05-22T11:31:46.459Z,65.00
2019-05-22T11:34:22.095Z,63.60
2019-05-22T11:37:00.718Z,62.50
2019-05-22T11:39:39.257Z,64.90
2019-05-22T11:42:06.997Z,63.70
2019-05-22T11:44:41.015Z,62.90
2019-05-22T11:47:12.312Z,62.70
2019-05-22T11:49:48.976Z,62.80
2019-05-22T11:52:20.581Z,62.70
2019-05-22T11:54:55.553Z,62.20
2019-05-22T11:57:24.799Z,61.70
2019-05-22T11:59:59.719Z,59.60
2019-05-22T12:02:29.793Z,64.70
2019-05-22T12:05:00.587Z,61.50
2019-05-22T12:07:37.231Z,61.00
2019-05-22T12:10:15.579Z,60.80
2019-05-22T12:12:53.354Z,61.00
2019-05-22T12:15:30.070Z,61.70
2019-05-22T12:17:59.991Z,58.70
2019-05-22T12:20:41.272Z,58.20
2019-05-22T12:23:18.441Z,58.50
2019-05-22T12:25:56.341Z,57.50
2019-05-22T12:28:27.778Z,57.30
2019-05-22T12:31:01.574Z,58.60
2019-05-22T12:33:38.956Z,58.60
2019-05-22T12:36:12.773Z,57.40
2019-05-22T12:38:52.224Z,55.60
2019-05-22T12:41:24.032Z,56.70
2019-05-22T12:43:56.326Z,57.60
2019-05-22T12:46:27.693Z,57.30
2019-05-22T12:49:00.746Z,56.90
2019-05-22T12:51:32.383Z,57.30
2019-05-22T12:54:03.122Z,56.80
2019-05-22T12:56:34.125Z,57.00
2019-05-22T12:59:10.540Z,58.30
2019-05-22T13:04:46.419Z,56.10
2019-05-22T13:07:19.928Z,57.80
2019-05-22T13:09:52.850Z,59.20
2019-05-22T13:12:26.494Z,59.10
2019-05-22T13:15:09.487Z,58.90
2019-05-22T13:17:34.298Z,60.00
2019-05-22T13:20:11.752Z,59.70
2019-05-22T13:22:55.382Z,59.70
2019-05-22T13:25:28.878Z,58.70
2019-05-22T13:28:05.189Z,58.90
2019-05-22T13:30:43.006Z,58.60
2019-05-22T13:33:22.591Z,59.60
2019-05-22T13:35:56.642Z,58.90
2019-05-22T13:38:41.647Z,58.20
2019-05-22T13:41:31.766Z,57.60
2019-05-22T13:44:06.702Z,56.60
2019-05-22T13:46:41.997Z,57.10
2019-05-22T13:49:14.243Z,55.10
2019-05-22T13:51:52.279Z,55.30
2019-05-22T13:54:31.248Z,56.20
2019-05-22T13:57:11.717Z,55.80
2019-05-22T13:59:42.323Z,55.50
2019-05-22T14:02:17.716Z,54.50
2019-05-22T14:04:55.625Z,54.10
2019-05-22T14:07:34.080Z,54.00
2019-05-22T14:10:01.351Z,55.60
2019-05-22T14:12:30.632Z,55.80
2019-05-22T14:15:00.093Z,56.60
2019-05-22T14:17:31.305Z,57.00
2019-05-22T14:20:05.358Z,57.30
2019-05-22T14:22:50.385Z,56.50
2019-05-22T14:25:19.478Z,56.20
2019-05-22T14:27:52.438Z,54.10
2019-05-22T14:30:29.148Z,54.90
2019-05-22T14:33:05.413Z,54.80
2019-05-22T14:35:48.658Z,55.60
2019-05-22T14:38:22.908Z,53.50
2019-05-22T14:40:55.007Z,55.00
2019-05-22T14:43:47.966Z,54.80
2019-05-22T14:46:12.577Z,54.90
2019-05-22T14:48:45.931Z,54.60
2019-05-22T14:51:31.786Z,54.00
2019-05-22T14:54:07.066Z,53.70
2019-05-22T14:56:40.795Z,55.20
2019-05-22T14:59:11.998Z,54.00
2019-05-22T15:01:43.960Z,53.00
2019-05-22T15:04:19.670Z,52.70
2019-05-22T15:06:51.250Z,54.00
2019-05-22T15:09:35.367Z,54.60
2019-05-22T15:12:09.745Z,55.60
2019-05-22T15:14:42.269Z,56.10
2019-05-22T15:17:31.776Z,58.50
2019-05-22T15:19:50.804Z,55.50
2019-05-22T15:22:22.294Z,53.80
2019-05-22T15:24:52.889Z,53.60
2019-05-22T15:27:27.338Z,52.50
2019-05-22T15:30:02.306Z,52.20
2019-05-22T15:32:33.084Z,51.80
2019-05-22T15:35:07.101Z,52.30
2019-05-22T15:37:40.879Z,52.10
2019-05-22T15:40:12.317Z,53.20
2019-05-22T15:42:57.120Z,54.30
2019-05-22T15:45:34.238Z,54.60
2019-05-22T15:48:07.466Z,54.80
2019-05-22T15:50:41.762Z,55.90
2019-05-22T15:53:16.682Z,53.60
2019-05-22T15:55:51.935Z,52.10
2019-05-22T15:58:28.862Z,52.60
2019-05-22T16:01:00.646Z,51.40
2019-05-22T16:03:36.165Z,51.50
2019-05-22T16:06:09.769Z,52.10
2019-05-22T16:08:40.522Z,51.90
2019-05-22T16:11:16.197Z,50.60
2019-05-22T16:13:47.882Z,49.80
2019-05-22T16:16:22.535Z,50.80
2019-05-22T16:19:40.814Z,53.00
2019-05-22T16:21:53.256Z,53.10
2019-05-22T16:24:24.769Z,53.20
2019-05-22T16:27:00.566Z,52.40
2019-05-22T16:30:02.214Z,52.60
2019-05-22T16:32:06.175Z,50.70
2019-05-22T16:34:53.403Z,52.50
2019-05-22T16:37:31.497Z,51.50
2019-05-22T16:40:05.152Z,49.80
2019-05-22T16:42:39.505Z,49.80
2019-05-22T16:45:15.679Z,49.80
2019-05-22T16:47:49.009Z,51.00
2019-05-22T16:50:37.139Z,52.30
2019-05-22T16:53:07.673Z,52.50
2019-05-22T16:55:39.752Z,53.10
2019-05-22T16:58:11.936Z,52.50
2019-05-22T17:00:41.862Z,53.00
2019-05-22T17:03:12.756Z,53.10
2019-05-22T17:05:45.431Z,53.70
2019-05-22T17:08:22.828Z,54.00
2019-05-22T17:10:53.999Z,54.40
2019-05-22T17:13:28.276Z,54.30
2019-05-22T17:16:09.486Z,55.80
2019-05-22T17:18:47.807Z,54.70
2019-05-22T17:21:17.862Z,53.90
2019-05-22T17:23:51.637Z,54.10
2019-05-22T17:26:23.267Z,52.70
2019-05-22T17:28:53.822Z,52.80
2019-05-22T17:31:27.234Z,52.80
2019-05-22T17:34:05.280Z,54.00
2019-05-22T17:36:34.582Z,54.30
2019-05-22T17:39:05.616Z,54.80
2019-05-22T17:41:37.647Z,55.10
2019-05-22T17:44:08.974Z,54.40
2019-05-22T17:46:42.874Z,54.20
2019-05-22T17:49:15.117Z,54.30
2019-05-22T17:51:49.724Z,54.80
2019-05-22T17:54:27.312Z,55.40
2019-05-22T17:57:07.798Z,55.30
2019-05-22T17:59:38.620Z,56.10
2019-05-22T18:02:19.468Z,56.00
2019-05-22T18:04:56.868Z,55.80
2019-05-22T18:07:24.719Z,56.20
2019-05-22T18:09:55.184Z,56.20
2019-05-22T18:12:28.432Z,56.20
2019-05-22T18:14:59.565Z,56.90
2019-05-22T18:20:24.839Z,59.00
2019-05-22T18:23:00.193Z,59.40
2019-05-22T18:25:38.128Z,60.80
2019-05-22T18:28:18.289Z,60.30
2019-05-22T18:30:57.303Z,59.80
2019-05-22T18:33:29.915Z,59.90
2019-05-22T18:36:04.698Z,60.10
2019-05-22T18:38:38.548Z,60.70
2019-05-22T18:41:12.809Z,61.60
2019-05-22T18:43:48.115Z,61.60
2019-05-22T18:46:24.073Z,63.00
2019-05-22T18:49:24.518Z,64.30
2019-05-22T18:51:38.580Z,63.90
2019-05-22T18:54:18.951Z,63.80
2019-05-22T18:56:49.021Z,64.00
2019-05-22T18:59:21.305Z,64.70
2019-05-22T19:01:59.387Z,65.30
2019-05-22T19:04:35.178Z,66.10
2019-05-22T19:07:16.746Z,65.70
2019-05-22T19:09:54.262Z,65.70
2019-05-22T19:12:27.083Z,66.60
2019-05-22T19:15:01.042Z,66.90
2019-05-22T19:17:59.514Z,66.80
2019-05-22T19:20:20.898Z,66.50
2019-05-22T19:23:00.284Z,66.90
2019-05-22T19:25:27.257Z,67.10
2019-05-22T19:28:00.862Z,67.60
2019-05-22T19:30:42.793Z,67.60
2019-05-22T19:33:18.015Z,67.70
2019-05-22T19:35:57.756Z,68.00
2019-05-22T19:38:31.088Z,68.60
2019-05-22T19:41:02.781Z,68.90
2019-05-22T19:43:37.907Z,69.50
2019-05-22T19:46:26.251Z,69.70
2019-05-22T19:49:01.503Z,69.70
2019-05-22T19:51:38.119Z,69.80
2019-05-22T19:54:26.218Z,70.30
2019-05-22T19:56:55.899Z,70.10
2019-05-22T19:59:25.417Z,70.50
2019-05-22T20:02:00.259Z,70.90
2019-05-22T20:04:35.134Z,70.90
2019-05-22T20:07:08.868Z,71.10
2019-05-22T20:09:51.190Z,71.40
2019-05-22T20:12:24.973Z,71.60
2019-05-22T20:14:55.127Z,71.70
2019-05-22T20:17:27.785Z,73.70
2019-05-22T20:20:06.050Z,72.10
2019-05-22T20:22:47.407Z,72.00
2019-05-22T20:25:28.348Z,72.00
2019-05-22T20:28:12.406Z,71.90
2019-05-22T20:30:42.231Z,72.00
2019-05-22T20:33:19.638Z,71.90
2019-05-22T20:35:53.771Z,71.90
2019-05-22T20:38:27.303Z,71.60
2019-05-22T20:40:59.824Z,72.00
2019-05-22T20:43:33.870Z,71.80
2019-05-22T20:46:04.343Z,72.00
2019-05-22T20:48:42.458Z,72.20
2019-05-22T20:51:14.646Z,72.70
2019-05-22T20:53:56.215Z,72.70
2019-05-22T20:56:28.265Z,73.90
2019-05-22T20:59:07.041Z,72.60
2019-05-22T21:01:36.526Z,72.60
2019-05-22T21:04:08.985Z,72.70
2019-05-22T21:06:50.286Z,72.50
2019-05-22T21:12:18.188Z,74.20
2019-05-22T21:14:56.721Z,72.50
2019-05-22T21:17:34.652Z,72.40
2019-05-22T21:20:13.115Z,72.40
2019-05-22T21:23:04.109Z,72.80
2019-05-22T21:25:50.182Z,72.40
2019-05-22T21:28:20.545Z,72.50
2019-05-22T21:30:56.168Z,72.80
2019-05-22T21:33:28.877Z,72.70
2019-05-22T21:36:00.034Z,72.50
2019-05-22T21:38:38.352Z,72.70
2019-05-22T21:41:13.704Z,73.40
2019-05-22T21:43:48.043Z,73.20
2019-05-22T21:46:21.520Z,72.70
2019-05-22T21:48:56.780Z,73.30
2019-05-22T21:51:29.990Z,72.80
2019-05-22T21:54:02.362Z,73.10
2019-05-22T21:56:36.634Z,73.30
2019-05-22T21:59:16.440Z,73.00
2019-05-22T22:01:59.256Z,72.90
2019-05-22T22:04:36.407Z,72.60
2019-05-22T22:07:11.026Z,71.40
2019-05-22T22:09:49.081Z,72.60
2019-05-22T22:12:25.712Z,73.30
2019-05-22T22:15:02.041Z,73.00
2019-05-22T22:17:35.844Z,72.70
2019-05-22T22:20:09.963Z,72.30
2019-05-22T22:22:43.411Z,72.60
2019-05-22T22:25:19.836Z,72.80
2019-05-22T22:27:50.365Z,73.20
2019-05-22T22:30:27.407Z,72.20
2019-05-22T22:33:03.902Z,72.10
2019-05-22T22:35:38.505Z,72.70
2019-05-22T22:38:19.058Z,74.00
2019-05-22T22:41:03.753Z,74.00
2019-05-22T22:43:31.967Z,74.10
2019-05-22T22:46:05.392Z,73.50
2019-05-22T22:48:41.092Z,73.00
2019-05-22T22:51:16.800Z,73.50
2019-05-22T22:53:50.912Z,73.00
2019-05-22T22:56:22.811Z,74.60
2019-05-22T22:58:56.384Z,73.40
2019-05-22T23:01:34.064Z,73.10
2019-05-22T23:04:09.233Z,72.30
2019-05-22T23:06:44.919Z,72.70
2019-05-22T23:09:23.343Z,72.80
2019-05-22T23:12:00.284Z,72.30
2019-05-22T23:14:33.039Z,72.20
2019-05-22T23:17:07.233Z,71.90
2019-05-22T23:19:37.831Z,72.50
2019-05-22T23:22:08.425Z,72.90
2019-05-22T23:24:46.915Z,72.30
2019-05-22T23:27:20.572Z,74.00
2019-05-22T23:29:58.623Z,71.60
2019-05-22T23:32:33.462Z,72.10
2019-05-22T23:35:03.658Z,72.10
2019-05-22T23:37:36.088Z,71.30
2019-05-22T23:40:08.438Z,71.90
2019-05-22T23:42:47.061Z,71.90
2019-05-22T23:45:21.480Z,72.80
2019-05-22T23:48:23.829Z,71.70
2019-05-22T23:51:02.857Z,72.30
2019-05-22T23:53:35.834Z,71.70
2019-05-22T23:56:10.050Z,72.20
2019-05-22T23:58:52.073Z,73.50
